createdAt,value
2022-09-29T00:00:40.310Z,17.47
2022-09-29T00:03:07.908Z,16.33
2022-09-29T00:05:35.064Z,17.67
2022-09-29T00:08:02.334Z,17.47
2022-09-29T00:10:29.467Z,16.27
2022-09-29T00:12:56.250Z,19.30
2022-09-29T00:15:23.015Z,17.07
2022-09-29T00:18:12.130Z,16.17
2022-09-29T00:20:37.306Z,16.27
2022-09-29T00:23:04.243Z,17.93
2022-09-29T00:25:31.475Z,16.23
2022-09-29T00:27:58.379Z,17.53
2022-09-29T00:30:25.253Z,19.40
2022-09-29T00:32:52.083Z,18.30
2022-09-29T00:35:18.841Z,18.73
2022-09-29T00:37:45.668Z,18.37
2022-09-29T00:40:12.560Z,17.83
2022-09-29T00:42:39.532Z,18.67
2022-09-29T00:45:17.240Z,16.27
2022-09-29T00:47:50.708Z,19.33
2022-09-29T00:50:40.666Z,16.00
2022-09-29T00:53:15.595Z,15.07
2022-09-29T00:55:50.905Z,16.70
2022-09-29T00:58:39.719Z,18.33
2022-09-29T01:01:07.594Z,15.53
2022-09-29T01:03:43.218Z,15.97
2022-09-29T01:06:24.489Z,16.43
2022-09-29T01:08:53.526Z,17.37
2022-09-29T01:11:22.394Z,17.73
2022-09-29T01:13:50.778Z,17.37
2022-09-29T01:16:17.784Z,16.10
2022-09-29T01:18:46.095Z,15.07
2022-09-29T01:21:36.942Z,18.53
2022-09-29T01:24:25.629Z,16.93
2022-09-29T01:27:11.747Z,16.47
2022-09-29T01:29:55.436Z,17.40
2022-09-29T01:32:40.618Z,16.73
2022-09-29T01:35:19.781Z,17.50
2022-09-29T01:38:17.504Z,19.83
2022-09-29T01:41:21.867Z,17.90
2022-09-29T01:43:57.803Z,16.23
2022-09-29T01:46:33.552Z,19.77
2022-09-29T01:49:04.251Z,17.13
2022-09-29T01:51:40.499Z,15.37
2022-09-29T01:54:15.658Z,18.23
2022-09-29T01:56:52.139Z,16.43
2022-09-29T01:59:33.685Z,18.10
2022-09-29T02:02:10.708Z,18.13
2022-09-29T02:05:01.177Z,16.00
2022-09-29T02:07:41.554Z,17.37
2022-09-29T02:10:19.756Z,18.50
2022-09-29T02:12:49.037Z,18.57
2022-09-29T02:15:22.747Z,16.40
2022-09-29T02:17:54.014Z,18.23
2022-09-29T02:20:22.492Z,21.50
2022-09-29T02:22:49.368Z,18.27
2022-09-29T02:25:18.620Z,17.90
2022-09-29T02:27:47.804Z,18.67
2022-09-29T02:30:14.644Z,21.17
2022-09-29T02:32:41.454Z,22.33
2022-09-29T02:35:11.778Z,20.13
2022-09-29T02:37:43.723Z,18.90
2022-09-29T02:40:22.794Z,18.43
2022-09-29T02:43:22.116Z,18.20
2022-09-29T02:46:23.638Z,17.27
2022-09-29T02:49:02.355Z,19.73
2022-09-29T02:51:41.896Z,18.73
2022-09-29T02:54:23.048Z,16.90
2022-09-29T02:56:52.414Z,17.43
2022-09-29T02:59:27.572Z,17.97
2022-09-29T03:01:56.639Z,16.53
2022-09-29T03:04:26.375Z,15.97
2022-09-29T03:06:54.004Z,14.53
2022-09-29T03:09:21.006Z,16.73
2022-09-29T03:11:47.817Z,19.53
2022-09-29T03:14:14.732Z,16.87
2022-09-29T03:16:41.552Z,18.63
2022-09-29T03:19:08.361Z,17.87
2022-09-29T03:21:35.759Z,19.60
2022-09-29T03:24:02.708Z,19.47
2022-09-29T03:26:30.322Z,17.43
2022-09-29T03:28:57.328Z,17.73
2022-09-29T03:31:24.306Z,19.70
2022-09-29T03:33:51.396Z,19.47
2022-09-29T03:36:18.740Z,20.33
2022-09-29T03:38:47.097Z,19.37
2022-09-29T03:41:14.108Z,15.63
2022-09-29T03:43:40.877Z,17.63
2022-09-29T03:46:07.729Z,16.13
2022-09-29T03:48:35.449Z,17.33
2022-09-29T03:51:02.383Z,18.87
2022-09-29T03:53:29.346Z,16.43
2022-09-29T03:55:57.761Z,18.07
2022-09-29T03:58:24.887Z,16.37
2022-09-29T04:00:51.875Z,17.40
2022-09-29T04:03:18.921Z,16.93
2022-09-29T04:05:47.566Z,17.03
2022-09-29T04:08:15.247Z,18.87
2022-09-29T04:10:42.387Z,18.27
2022-09-29T04:13:09.561Z,18.47
2022-09-29T04:15:37.116Z,18.33
2022-09-29T04:18:04.938Z,19.07
2022-09-29T04:20:32.760Z,19.10
2022-09-29T04:23:01.067Z,18.93
2022-09-29T04:25:28.365Z,18.80
2022-09-29T04:27:55.204Z,18.07
2022-09-29T04:30:22.072Z,19.40
2022-09-29T04:32:48.850Z,18.20
2022-09-29T04:35:15.709Z,16.77
2022-09-29T04:37:42.629Z,18.03
2022-09-29T04:40:09.776Z,18.33
2022-09-29T04:42:36.526Z,20.10
2022-09-29T04:45:03.488Z,18.93
2022-09-29T04:47:30.913Z,19.13
2022-09-29T04:49:57.776Z,19.80
2022-09-29T04:52:24.548Z,20.20
2022-09-29T04:54:51.320Z,18.00
2022-09-29T04:57:18.143Z,17.97
2022-09-29T04:59:45.018Z,21.50
2022-09-29T05:02:11.836Z,19.50
2022-09-29T05:04:38.669Z,20.80
2022-09-29T05:07:05.482Z,21.60
2022-09-29T05:09:33.873Z,21.37
2022-09-29T05:12:01.776Z,20.83
2022-09-29T05:14:28.715Z,23.20
2022-09-29T05:16:56.595Z,21.57
2022-09-29T05:19:24.244Z,18.83
2022-09-29T05:21:51.133Z,21.30
2022-09-29T05:24:17.890Z,22.20
2022-09-29T05:26:44.814Z,20.53
2022-09-29T05:29:11.732Z,21.83
2022-09-29T05:31:38.735Z,22.53
2022-09-29T05:34:05.636Z,19.23
2022-09-29T05:36:32.436Z,20.00
2022-09-29T05:38:59.373Z,20.00
2022-09-29T05:41:26.281Z,21.93
2022-09-29T05:43:55.408Z,20.63
2022-09-29T05:46:23.185Z,18.07
2022-09-29T05:48:53.295Z,20.13
2022-09-29T05:51:23.431Z,18.67
2022-09-29T05:53:50.946Z,19.57
2022-09-29T05:56:20.070Z,19.17
2022-09-29T05:58:46.864Z,19.93
2022-09-29T06:01:16.464Z,20.73
2022-09-29T06:03:44.042Z,19.53
2022-09-29T06:06:13.564Z,18.10
2022-09-29T06:08:40.939Z,18.87
2022-09-29T06:11:13.963Z,19.87
2022-09-29T06:13:42.691Z,19.20
2022-09-29T06:16:10.724Z,18.47
2022-09-29T06:18:38.097Z,20.23
2022-09-29T06:21:10.835Z,18.43
2022-09-29T06:23:38.667Z,18.33
2022-09-29T06:26:10.238Z,19.07
2022-09-29T06:28:37.841Z,18.03
2022-09-29T06:31:07.288Z,21.33
2022-09-29T06:33:36.668Z,17.97
2022-09-29T06:36:30.607Z,17.90
2022-09-29T06:38:57.614Z,18.17
2022-09-29T06:41:24.367Z,17.83
2022-09-29T06:43:51.124Z,19.53
2022-09-29T06:46:17.974Z,17.67
2022-09-29T06:48:45.380Z,18.37
2022-09-29T06:51:12.162Z,18.47
2022-09-29T06:53:39.365Z,17.87
2022-09-29T06:56:06.924Z,18.43
2022-09-29T06:58:34.083Z,19.17
2022-09-29T07:01:02.278Z,17.53
2022-09-29T07:03:29.708Z,15.43
2022-09-29T07:06:15.576Z,17.50
2022-09-29T07:08:43.374Z,16.10
2022-09-29T07:11:11.437Z,15.17
2022-09-29T07:13:39.112Z,17.40
2022-09-29T07:16:12.114Z,17.77
2022-09-29T07:18:41.076Z,15.10
2022-09-29T07:21:10.678Z,12.77
2022-09-29T07:23:38.357Z,14.87
2022-09-29T07:26:06.823Z,18.07
2022-09-29T07:28:34.404Z,13.73
2022-09-29T07:31:14.487Z,14.50
2022-09-29T07:33:43.423Z,14.03
2022-09-29T07:36:10.616Z,13.97
2022-09-29T07:38:37.547Z,13.00
2022-09-29T07:41:10.739Z,12.70
2022-09-29T07:43:38.368Z,14.00
2022-09-29T07:46:05.662Z,16.80
2022-09-29T07:48:33.763Z,12.63
2022-09-29T07:51:20.238Z,13.00
2022-09-29T07:53:48.769Z,13.87
2022-09-29T07:56:21.077Z,12.77
2022-09-29T07:58:51.458Z,11.50
2022-09-29T08:01:20.114Z,12.00
2022-09-29T08:03:52.827Z,13.57
2022-09-29T08:06:19.958Z,12.30
2022-09-29T08:09:00.348Z,14.23
2022-09-29T08:11:39.518Z,13.00
2022-09-29T08:14:07.114Z,12.00
2022-09-29T08:16:35.133Z,11.00
2022-09-29T08:19:04.344Z,11.73
2022-09-29T08:21:36.520Z,11.63
2022-09-29T08:24:05.059Z,13.10
2022-09-29T08:26:43.188Z,11.73
2022-09-29T08:29:16.414Z,12.70
2022-09-29T08:31:44.355Z,12.93
2022-09-29T08:34:11.385Z,12.53
2022-09-29T08:36:38.166Z,11.30
2022-09-29T08:39:05.357Z,11.37
2022-09-29T08:42:14.018Z,11.50
2022-09-29T08:45:29.119Z,11.27
2022-09-29T08:51:41.879Z,12.83
2022-09-29T08:54:46.258Z,14.90
2022-09-29T08:57:19.848Z,13.93
2022-09-29T08:59:57.135Z,12.70
2022-09-29T09:02:30.517Z,12.10
2022-09-29T09:05:15.959Z,11.83
2022-09-29T09:07:51.546Z,13.50
2022-09-29T09:10:42.729Z,11.93
2022-09-29T09:13:53.005Z,12.13
2022-09-29T09:17:24.041Z,10.50
2022-09-29T09:20:15.270Z,10.27
2022-09-29T09:23:01.191Z,11.53
2022-09-29T09:26:07.084Z,13.67
2022-09-29T09:28:48.324Z,12.07
2022-09-29T09:37:08.730Z,10.50
2022-09-29T09:40:15.021Z,11.60
2022-09-29T09:42:46.898Z,11.73
2022-09-29T09:45:41.031Z,9.73
2022-09-29T09:48:30.813Z,11.00
2022-09-29T09:51:39.168Z,10.90
2022-09-29T09:54:28.235Z,11.83
2022-09-29T09:57:25.313Z,10.90
2022-09-29T10:00:34.044Z,12.07
2022-09-29T10:03:07.628Z,12.23
2022-09-29T10:05:40.564Z,11.93
2022-09-29T10:08:42.499Z,9.57
2022-09-29T10:11:31.859Z,9.27
2022-09-29T10:14:10.894Z,9.60
2022-09-29T10:16:52.118Z,11.40
2022-09-29T10:20:16.339Z,9.63
2022-09-29T10:22:43.383Z,10.03
2022-09-29T10:25:21.005Z,9.00
2022-09-29T10:27:50.754Z,8.60
2022-09-29T10:30:22.576Z,9.10
2022-09-29T10:32:54.826Z,9.37
2022-09-29T10:35:30.302Z,11.03
2022-09-29T10:38:03.293Z,10.60
2022-09-29T10:40:30.293Z,9.43
2022-09-29T10:42:58.152Z,9.10
2022-09-29T10:45:29.547Z,9.57
2022-09-29T10:47:59.696Z,8.83
2022-09-29T10:50:37.820Z,11.67
2022-09-29T10:53:34.230Z,8.53
2022-09-29T10:56:25.660Z,9.03
2022-09-29T10:59:05.356Z,8.17
2022-09-29T11:01:53.898Z,7.40
2022-09-29T11:04:39.941Z,8.57
2022-09-29T11:07:11.641Z,10.37
2022-09-29T11:09:41.674Z,9.87
2022-09-29T11:12:39.968Z,11.40
2022-09-29T11:15:45.306Z,9.47
2022-09-29T11:28:51.321Z,9.83
2022-09-29T11:32:02.735Z,8.00
2022-09-29T11:34:48.551Z,11.77
2022-09-29T11:37:36.203Z,7.57
2022-09-29T11:43:19.170Z,9.77
2022-09-29T11:46:14.065Z,8.90
2022-09-29T11:49:01.044Z,10.80
2022-09-29T11:51:35.148Z,9.60
2022-09-29T11:54:46.364Z,9.40
2022-09-29T11:58:00.874Z,10.93
2022-09-29T12:00:46.554Z,8.90
2022-09-29T12:03:33.629Z,9.43
2022-09-29T12:07:19.824Z,7.53
2022-09-29T12:10:44.328Z,7.77
2022-09-29T12:13:52.193Z,9.30
2022-09-29T12:16:30.536Z,7.37
2022-09-29T12:22:54.082Z,8.57
2022-09-29T12:25:58.469Z,10.00
2022-09-29T12:28:39.609Z,10.90
2022-09-29T12:31:53.007Z,10.17
2022-09-29T12:34:44.715Z,10.53
2022-09-29T12:41:05.641Z,9.50
2022-09-29T12:44:21.240Z,9.17
2022-09-29T12:47:12.483Z,11.37
2022-09-29T12:50:16.859Z,9.20
2022-09-29T12:53:18.063Z,8.87
2022-09-29T12:56:25.179Z,10.77
2022-09-29T13:16:23.486Z,10.53
2022-09-29T13:19:23.050Z,11.63
2022-09-29T13:22:01.704Z,10.10
2022-09-29T13:25:13.329Z,11.43
2022-09-29T13:27:52.594Z,10.90
2022-09-29T13:30:29.417Z,10.80
2022-09-29T13:33:10.405Z,10.40
2022-09-29T13:35:43.664Z,10.70
2022-09-29T13:38:24.521Z,19.50
2022-09-29T13:41:24.278Z,10.73
2022-09-29T13:43:56.097Z,18.23
2022-09-29T13:46:32.063Z,17.70
2022-09-29T13:49:14.023Z,19.30
2022-09-29T13:51:44.377Z,27.13
2022-09-29T13:54:21.458Z,14.17
2022-09-29T13:57:16.379Z,10.90
2022-09-29T13:59:47.313Z,14.80
2022-09-29T14:02:35.688Z,10.63
2022-09-29T14:05:04.434Z,14.77
2022-09-29T14:07:50.467Z,13.87
2022-09-29T14:10:26.890Z,12.87
2022-09-29T14:13:25.691Z,9.20
2022-09-29T14:16:26.586Z,10.47
2022-09-29T14:19:26.922Z,15.80
2022-09-29T14:28:57.157Z,12.30
2022-09-29T14:31:39.238Z,11.17
2022-09-29T14:34:19.627Z,13.53
2022-09-29T14:36:48.897Z,15.17
2022-09-29T14:39:31.897Z,14.35
2022-09-29T14:49:43.430Z,10.67
2022-09-29T14:52:26.881Z,11.10
2022-09-29T14:55:15.595Z,12.50
2022-09-29T14:58:05.849Z,10.97
2022-09-29T15:01:03.998Z,10.23
2022-09-29T15:03:39.790Z,10.93
2022-09-29T15:06:28.114Z,11.60
2022-09-29T15:09:02.626Z,11.50
2022-09-29T15:11:31.561Z,11.63
2022-09-29T15:13:59.802Z,11.67
2022-09-29T15:16:52.700Z,10.80
2022-09-29T15:20:08.718Z,13.20
2022-09-29T15:23:03.192Z,12.03
2022-09-29T15:25:40.833Z,14.23
2022-09-29T15:28:26.210Z,12.90
2022-09-29T15:30:54.918Z,11.70
2022-09-29T15:33:35.699Z,11.40
2022-09-29T15:36:08.165Z,13.30
2022-09-29T15:38:40.062Z,12.43
2022-09-29T15:41:20.124Z,11.87
2022-09-29T15:43:57.707Z,13.83
2022-09-29T15:46:35.305Z,14.73
2022-09-29T15:49:10.793Z,12.70
2022-09-29T15:51:48.096Z,13.13
2022-09-29T15:54:15.200Z,12.73
2022-09-29T15:57:01.124Z,14.20
2022-09-29T15:59:50.200Z,13.47
2022-09-29T16:02:32.465Z,14.00
2022-09-29T16:05:04.045Z,14.50
2022-09-29T16:07:38.526Z,14.23
2022-09-29T16:10:18.216Z,15.17
2022-09-29T16:12:57.911Z,15.17
2022-09-29T16:15:34.824Z,15.57
2022-09-29T16:18:08.337Z,15.80
2022-09-29T16:20:36.679Z,17.50
2022-09-29T16:23:28.376Z,16.57
2022-09-29T16:26:07.462Z,15.50
2022-09-29T16:29:02.509Z,16.97
2022-09-29T16:31:31.072Z,17.93
2022-09-29T16:34:03.879Z,16.07
2022-09-29T16:36:36.870Z,14.77
2022-09-29T16:39:19.831Z,15.13
2022-09-29T16:42:03.735Z,16.07
2022-09-29T16:44:43.687Z,17.67
2022-09-29T16:47:20.905Z,14.77
2022-09-29T16:49:54.456Z,16.57
2022-09-29T16:52:28.526Z,17.93
2022-09-29T16:55:15.758Z,17.77
2022-09-29T16:57:56.834Z,15.87
2022-09-29T17:00:24.283Z,16.13
2022-09-29T17:02:58.226Z,17.43
2022-09-29T17:05:26.825Z,17.83
2022-09-29T17:08:01.436Z,17.80
2022-09-29T17:10:29.050Z,18.70
2022-09-29T17:12:55.884Z,17.67
2022-09-29T17:15:23.846Z,16.67
2022-09-29T17:17:51.719Z,16.93
2022-09-29T17:20:22.166Z,17.97
2022-09-29T17:22:49.143Z,19.57
2022-09-29T17:25:16.056Z,18.90
2022-09-29T17:28:02.589Z,19.20
2022-09-29T17:33:12.980Z,20.47
2022-09-29T17:35:42.674Z,17.57
2022-09-29T17:38:11.586Z,18.20
2022-09-29T17:40:42.431Z,17.83
2022-09-29T17:43:10.799Z,18.57
2022-09-29T17:45:46.200Z,22.17
2022-09-29T17:48:15.310Z,18.97
2022-09-29T17:58:13.258Z,19.83
2022-09-29T18:00:43.603Z,23.03
2022-09-29T18:03:20.418Z,23.73
2022-09-29T18:05:56.961Z,24.13
2022-09-29T18:09:06.002Z,22.00
2022-09-29T18:14:30.154Z,22.60
2022-09-29T18:17:09.458Z,23.20
2022-09-29T18:19:40.267Z,21.67
2022-09-29T18:22:11.026Z,24.73
2022-09-29T18:28:10.039Z,23.50
2022-09-29T18:31:23.175Z,22.80
2022-09-29T18:33:53.565Z,21.80
2022-09-29T18:36:21.338Z,23.57
2022-09-29T18:38:57.494Z,28.30
2022-09-29T18:41:25.775Z,23.87
2022-09-29T18:43:56.135Z,27.73
2022-09-29T18:46:32.456Z,24.40
2022-09-29T18:49:02.255Z,28.00
2022-09-29T18:51:30.337Z,24.53
2022-09-29T18:53:59.424Z,24.93
2022-09-29T18:56:26.433Z,24.20
2022-09-29T18:58:53.579Z,28.20
2022-09-29T19:01:32.418Z,25.00
2022-09-29T19:03:59.721Z,26.70
2022-09-29T19:06:29.618Z,24.03
2022-09-29T19:08:56.620Z,26.27
2022-09-29T19:11:26.316Z,24.53
2022-09-29T19:13:55.364Z,23.77
2022-09-29T19:16:23.916Z,27.60
2022-09-29T19:18:51.105Z,26.30
2022-09-29T19:21:18.429Z,23.90
2022-09-29T19:23:46.792Z,22.97
2022-09-29T19:26:20.091Z,26.87
2022-09-29T19:28:48.238Z,24.67
2022-09-29T19:31:19.523Z,23.03
2022-09-29T19:33:47.054Z,28.13
2022-09-29T19:36:17.755Z,25.57
2022-09-29T19:38:46.505Z,26.03
2022-09-29T19:41:20.138Z,26.00
2022-09-29T19:43:47.930Z,25.47
2022-09-29T19:46:15.989Z,24.07
2022-09-29T19:48:52.349Z,27.17
2022-09-29T19:51:38.506Z,26.73
2022-09-29T19:54:11.016Z,28.60
2022-09-29T19:56:46.605Z,27.63
2022-09-29T19:59:15.577Z,26.77
2022-09-29T20:01:45.561Z,25.93
2022-09-29T20:04:30.062Z,22.20
2022-09-29T20:07:06.761Z,25.53
2022-09-29T20:09:44.327Z,22.57
2022-09-29T20:12:17.077Z,26.23
2022-09-29T20:14:46.808Z,25.90
2022-09-29T20:17:28.591Z,22.23
2022-09-29T20:19:58.104Z,23.10
2022-09-29T20:22:26.583Z,23.93
2022-09-29T20:25:11.135Z,23.23
2022-09-29T20:28:28.821Z,23.13
2022-09-29T20:34:48.389Z,23.57
2022-09-29T20:43:44.333Z,29.97
2022-09-29T20:46:14.285Z,28.70
2022-09-29T20:48:42.236Z,27.77
2022-09-29T20:51:15.289Z,30.80
2022-09-29T20:53:51.965Z,28.77
2022-09-29T20:56:18.951Z,28.47
2022-09-29T20:58:48.540Z,29.40
2022-09-29T21:01:36.060Z,29.17
2022-09-29T21:04:32.187Z,25.90
2022-09-29T21:07:01.696Z,26.80
2022-09-29T21:15:38.493Z,29.97
2022-09-29T21:16:31.902Z,29.23
2022-09-29T21:18:59.177Z,30.10
2022-09-29T21:21:26.034Z,28.70
2022-09-29T21:23:52.808Z,29.10
2022-09-29T21:26:23.500Z,29.10
2022-09-29T21:28:55.763Z,29.80
2022-09-29T21:31:25.093Z,31.03
2022-09-29T21:33:57.223Z,33.60
2022-09-29T21:36:25.887Z,34.37
2022-09-29T21:38:53.479Z,34.67
2022-09-29T21:41:24.364Z,34.27
2022-09-29T21:43:53.384Z,27.83
2022-09-29T21:46:25.857Z,35.60
2022-09-29T21:48:54.714Z,36.47
2022-09-29T21:51:24.189Z,35.23
2022-09-29T21:53:52.616Z,35.70
2022-09-29T21:56:22.736Z,30.87
2022-09-29T21:58:51.720Z,32.43
2022-09-29T22:01:18.888Z,30.57
2022-09-29T22:03:57.784Z,31.17
2022-09-29T22:06:33.375Z,31.10
2022-09-29T22:09:01.615Z,31.73
2022-09-29T22:11:31.027Z,34.63
2022-09-29T22:14:00.126Z,34.83
2022-09-29T22:16:30.667Z,31.90
2022-09-29T22:19:22.027Z,33.60
2022-09-29T22:21:46.912Z,33.63
2022-09-29T22:24:14.490Z,35.03
2022-09-29T22:26:41.575Z,37.57
2022-09-29T22:29:17.590Z,37.30
2022-09-29T22:31:44.420Z,33.70
2022-09-29T22:34:11.621Z,31.90
2022-09-29T22:36:38.917Z,34.97
2022-09-29T22:39:06.901Z,34.00
2022-09-29T22:41:36.602Z,33.43
2022-09-29T22:44:04.237Z,33.40
2022-09-29T22:46:31.763Z,34.47
2022-09-29T22:48:59.451Z,34.77
2022-09-29T22:51:26.295Z,36.40
2022-09-29T22:53:53.097Z,34.77
2022-09-29T22:56:22.087Z,34.93
2022-09-29T22:58:49.571Z,35.87
2022-09-29T23:01:21.242Z,35.57
2022-09-29T23:03:49.155Z,34.90
2022-09-29T23:06:16.890Z,36.30
2022-09-29T23:08:48.336Z,35.33
2022-09-29T23:11:17.746Z,34.50
2022-09-29T23:13:45.418Z,34.23
2022-09-29T23:16:14.329Z,37.03
2022-09-29T23:19:05.249Z,36.17
2022-09-29T23:21:33.643Z,35.33
2022-09-29T23:24:01.904Z,35.43
2022-09-29T23:26:30.803Z,34.70
2022-09-29T23:28:58.353Z,36.57
2022-09-29T23:31:25.822Z,36.77
2022-09-29T23:33:55.796Z,36.27
2022-09-29T23:36:28.610Z,35.80
2022-09-29T23:39:10.508Z,37.00
2022-09-29T23:41:39.917Z,34.00
2022-09-29T23:44:06.964Z,34.57
2022-09-29T23:46:36.852Z,34.57
2022-09-29T23:49:24.054Z,33.37
2022-09-29T23:51:56.698Z,35.23
2022-09-29T23:54:25.529Z,41.60
2022-09-29T23:56:57.476Z,40.57
2022-09-29T23:59:25.004Z,41.23
